sensor_id;sensor_type;location;lat;lon;timestamp;pressure;altitude;pressure_sealevel;temperature;humidity
76598;BME280;65486;53.144;18.134;2023-02-26T00:00:56;100058.23;;;-0.02;78.13
76598;BME280;65486;53.144;18.134;2023-02-26T00:03:35;100062.70;;;-0.02;78.05
76598;BME280;65486;53.144;18.134;2023-02-26T00:06:01;100068.70;;;-0.02;77.95
76598;BME280;65486;53.144;18.134;2023-02-26T00:08:27;100073.37;;;-0.02;77.91
76598;BME280;65486;53.144;18.134;2023-02-26T00:10:57;100075.13;;;-0.01;78.15
76598;BME280;65486;53.144;18.134;2023-02-26T00:13:32;100079.44;;;-0.01;78.02
76598;BME280;65486;53.144;18.134;2023-02-26T00:16:00;100086.08;;;-0.01;78.05
76598;BME280;65486;53.144;18.134;2023-02-26T00:18:30;100087.79;;;0.00;78.02
76598;BME280;65486;53.144;18.134;2023-02-26T00:21:16;100093.88;;;0.01;77.82
76598;BME280;65486;53.144;18.134;2023-02-26T00:23:46;100100.26;;;0.03;77.73
76598;BME280;65486;53.144;18.134;2023-02-26T00:26:50;100100.42;;;0.04;77.92
76598;BME280;65486;53.144;18.134;2023-02-26T00:29:22;100102.80;;;0.06;77.90
76598;BME280;65486;53.144;18.134;2023-02-26T00:31:49;100109.05;;;0.08;77.87
76598;BME280;65486;53.144;18.134;2023-02-26T00:34:18;100103.41;;;0.08;77.87
76598;BME280;65486;53.144;18.134;2023-02-26T00:39:49;100115.63;;;0.13;77.91
76598;BME280;65486;53.144;18.134;2023-02-26T00:42:19;100123.21;;;0.15;77.83
76598;BME280;65486;53.144;18.134;2023-02-26T00:44:47;100128.31;;;0.16;77.77
76598;BME280;65486;53.144;18.134;2023-02-26T00:47:25;100123.98;;;0.16;77.71
76598;BME280;65486;53.144;18.134;2023-02-26T00:50:23;100133.08;;;0.16;77.67
76598;BME280;65486;53.144;18.134;2023-02-26T00:56:03;100137.40;;;0.17;77.75
76598;BME280;65486;53.144;18.134;2023-02-26T00:58:34;100140.53;;;0.19;77.85
76598;BME280;65486;53.144;18.134;2023-02-26T01:01:03;100145.52;;;0.19;77.91
76598;BME280;65486;53.144;18.134;2023-02-26T01:03:30;100145.61;;;0.20;77.81
76598;BME280;65486;53.144;18.134;2023-02-26T01:05:57;100141.48;;;0.20;77.74
76598;BME280;65486;53.144;18.134;2023-02-26T01:08:35;100147.65;;;0.20;77.49
76598;BME280;65486;53.144;18.134;2023-02-26T01:11:07;100148.69;;;0.18;77.55
76598;BME280;65486;53.144;18.134;2023-02-26T01:13:34;100152.39;;;0.16;77.46
76598;BME280;65486;53.144;18.134;2023-02-26T01:16:06;100152.60;;;0.14;77.54
76598;BME280;65486;53.144;18.134;2023-02-26T01:28:21;100179.71;;;0.09;77.56
76598;BME280;65486;53.144;18.134;2023-02-26T01:30:48;100185.53;;;0.10;77.73
76598;BME280;65486;53.144;18.134;2023-02-26T01:33:27;100186.95;;;0.11;77.74
76598;BME280;65486;53.144;18.134;2023-02-26T01:42:29;100190.80;;;0.07;78.13
76598;BME280;65486;53.144;18.134;2023-02-26T01:45:15;100195.15;;;0.07;78.15
76598;BME280;65486;53.144;18.134;2023-02-26T01:48:06;100200.21;;;0.05;78.06
76598;BME280;65486;53.144;18.134;2023-02-26T01:50:39;100210.25;;;0.05;78.00
76598;BME280;65486;53.144;18.134;2023-02-26T01:55:36;100212.37;;;0.01;78.00
76598;BME280;65486;53.144;18.134;2023-02-26T01:58:03;100214.45;;;-0.01;77.92
76598;BME280;65486;53.144;18.134;2023-02-26T02:00:36;100219.27;;;-0.03;78.15
76598;BME280;65486;53.144;18.134;2023-02-26T02:03:05;100221.35;;;-0.05;78.20
76598;BME280;65486;53.144;18.134;2023-02-26T02:05:45;100218.42;;;-0.06;78.09
76598;BME280;65486;53.144;18.134;2023-02-26T02:08:13;100219.48;;;-0.09;78.10
76598;BME280;65486;53.144;18.134;2023-02-26T02:11:05;100221.30;;;-0.14;77.98
76598;BME280;65486;53.144;18.134;2023-02-26T02:19:17;100235.38;;;-0.25;78.31
76598;BME280;65486;53.144;18.134;2023-02-26T02:28:04;100255.05;;;-0.27;78.33
76598;BME280;65486;53.144;18.134;2023-02-26T02:33:35;100264.80;;;-0.27;78.17
76598;BME280;65486;53.144;18.134;2023-02-26T02:36:34;100268.59;;;-0.27;78.00
76598;BME280;65486;53.144;18.134;2023-02-26T02:39:05;100273.08;;;-0.26;78.01
76598;BME280;65486;53.144;18.134;2023-02-26T02:42:23;100278.17;;;-0.25;78.34
76598;BME280;65486;53.144;18.134;2023-02-26T02:45:06;100284.48;;;-0.25;78.01
76598;BME280;65486;53.144;18.134;2023-02-26T02:47:38;100282.56;;;-0.32;78.16
76598;BME280;65486;53.144;18.134;2023-02-26T02:50:16;100296.25;;;-0.25;77.91
76598;BME280;65486;53.144;18.134;2023-02-26T02:53:07;100298.50;;;-0.26;77.94
76598;BME280;65486;53.144;18.134;2023-02-26T02:56:09;100297.83;;;-0.26;77.85
76598;BME280;65486;53.144;18.134;2023-02-26T02:58:46;100302.13;;;-0.26;77.97
76598;BME280;65486;53.144;18.134;2023-02-26T03:01:24;100305.55;;;-0.26;78.24
76598;BME280;65486;53.144;18.134;2023-02-26T03:06:25;100309.19;;;-0.28;77.98
76598;BME280;65486;53.144;18.134;2023-02-26T03:08:53;100317.21;;;-0.29;78.14
76598;BME280;65486;53.144;18.134;2023-02-26T03:11:20;100319.21;;;-0.29;77.99
76598;BME280;65486;53.144;18.134;2023-02-26T03:13:49;100322.09;;;-0.30;78.14
76598;BME280;65486;53.144;18.134;2023-02-26T03:16:39;100331.02;;;-0.33;78.02
76598;BME280;65486;53.144;18.134;2023-02-26T03:19:27;100333.55;;;-0.34;78.02
76598;BME280;65486;53.144;18.134;2023-02-26T03:27:48;100344.35;;;-0.38;78.29
76598;BME280;65486;53.144;18.134;2023-02-26T03:30:44;100349.11;;;-0.38;78.23
76598;BME280;65486;53.144;18.134;2023-02-26T03:33:45;100351.73;;;-0.37;78.36
76598;BME280;65486;53.144;18.134;2023-02-26T03:40:15;100367.05;;;-0.39;78.35
76598;BME280;65486;53.144;18.134;2023-02-26T03:43:34;100369.13;;;-0.38;78.18
76598;BME280;65486;53.144;18.134;2023-02-26T03:46:13;100378.06;;;-0.37;78.29
76598;BME280;65486;53.144;18.134;2023-02-26T03:48:49;100384.00;;;-0.37;78.28
76598;BME280;65486;53.144;18.134;2023-02-26T03:51:18;100380.92;;;-0.37;78.10
76598;BME280;65486;53.144;18.134;2023-02-26T03:54:17;100386.91;;;-0.37;78.25
76598;BME280;65486;53.144;18.134;2023-02-26T03:56:48;100390.91;;;-0.37;78.31
76598;BME280;65486;53.144;18.134;2023-02-26T04:03:13;100399.45;;;-0.39;78.43
76598;BME280;65486;53.144;18.134;2023-02-26T04:06:44;100403.02;;;-0.41;78.35
76598;BME280;65486;53.144;18.134;2023-02-26T04:10:02;100411.23;;;-0.41;78.49
76598;BME280;65486;53.144;18.134;2023-02-26T04:12:41;100411.41;;;-0.45;78.40
76598;BME280;65486;53.144;18.134;2023-02-26T04:15:13;100414.73;;;-0.44;78.46
76598;BME280;65486;53.144;18.134;2023-02-26T04:17:40;100420.21;;;-0.45;78.25
76598;BME280;65486;53.144;18.134;2023-02-26T04:20:07;100416.71;;;-0.46;78.41
76598;BME280;65486;53.144;18.134;2023-02-26T04:22:35;100421.15;;;-0.47;78.55
76598;BME280;65486;53.144;18.134;2023-02-26T04:25:10;100427.24;;;-0.48;78.48
76598;BME280;65486;53.144;18.134;2023-02-26T04:27:38;100434.74;;;-0.49;78.40
76598;BME280;65486;53.144;18.134;2023-02-26T04:30:07;100441.89;;;-0.48;78.34
76598;BME280;65486;53.144;18.134;2023-02-26T04:35:56;100447.09;;;-0.48;78.45
76598;BME280;65486;53.144;18.134;2023-02-26T04:42:35;100450.44;;;-0.47;78.47
76598;BME280;65486;53.144;18.134;2023-02-26T04:45:04;100464.58;;;-0.41;78.64
76598;BME280;65486;53.144;18.134;2023-02-26T04:47:31;100470.36;;;-0.39;78.71
76598;BME280;65486;53.144;18.134;2023-02-26T04:49:59;100473.21;;;-0.40;78.96
76598;BME280;65486;53.144;18.134;2023-02-26T04:52:26;100478.06;;;-0.40;79.36
76598;BME280;65486;53.144;18.134;2023-02-26T04:54:52;100487.10;;;-0.40;79.68
76598;BME280;65486;53.144;18.134;2023-02-26T04:57:19;100491.91;;;-0.40;79.61
76598;BME280;65486;53.144;18.134;2023-02-26T04:59:45;100489.40;;;-0.40;80.02
76598;BME280;65486;53.144;18.134;2023-02-26T05:02:13;100487.27;;;-0.40;79.98
76598;BME280;65486;53.144;18.134;2023-02-26T05:04:56;100490.33;;;-0.40;79.99
76598;BME280;65486;53.144;18.134;2023-02-26T05:07:24;100491.69;;;-0.39;79.80
76598;BME280;65486;53.144;18.134;2023-02-26T05:09:50;100495.56;;;-0.38;79.90
76598;BME280;65486;53.144;18.134;2023-02-26T05:12:18;100501.09;;;-0.39;79.97
76598;BME280;65486;53.144;18.134;2023-02-26T05:14:45;100504.71;;;-0.41;79.88
76598;BME280;65486;53.144;18.134;2023-02-26T05:17:12;100507.16;;;-0.44;79.83
76598;BME280;65486;53.144;18.134;2023-02-26T05:19:41;100506.88;;;-0.45;79.80
76598;BME280;65486;53.144;18.134;2023-02-26T05:22:11;100511.01;;;-0.46;79.92
76598;BME280;65486;53.144;18.134;2023-02-26T05:24:40;100517.52;;;-0.48;79.88
76598;BME280;65486;53.144;18.134;2023-02-26T05:27:15;100516.52;;;-0.51;79.85
76598;BME280;65486;53.144;18.134;2023-02-26T05:29:45;100523.27;;;-0.51;79.70
76598;BME280;65486;53.144;18.134;2023-02-26T05:32:13;100524.82;;;-0.52;79.63
76598;BME280;65486;53.144;18.134;2023-02-26T05:34:40;100532.91;;;-0.52;79.46
76598;BME280;65486;53.144;18.134;2023-02-26T05:37:07;100535.85;;;-0.51;79.45
76598;BME280;65486;53.144;18.134;2023-02-26T05:39:33;100542.94;;;-0.50;79.35
76598;BME280;65486;53.144;18.134;2023-02-26T05:41:59;100547.13;;;-0.46;79.62
76598;BME280;65486;53.144;18.134;2023-02-26T05:44:28;100552.41;;;-0.43;79.15
76598;BME280;65486;53.144;18.134;2023-02-26T05:46:54;100556.28;;;-0.42;79.61
76598;BME280;65486;53.144;18.134;2023-02-26T05:49:21;100564.27;;;-0.41;79.41
76598;BME280;65486;53.144;18.134;2023-02-26T05:51:47;100570.27;;;-0.41;79.35
76598;BME280;65486;53.144;18.134;2023-02-26T05:54:18;100574.69;;;-0.38;79.42
76598;BME280;65486;53.144;18.134;2023-02-26T05:56:49;100584.27;;;-0.36;79.55
76598;BME280;65486;53.144;18.134;2023-02-26T05:59:21;100593.38;;;-0.34;79.20
76598;BME280;65486;53.144;18.134;2023-02-26T06:01:48;100597.84;;;-0.31;79.53
76598;BME280;65486;53.144;18.134;2023-02-26T06:04:16;100602.76;;;-0.30;79.54
76598;BME280;65486;53.144;18.134;2023-02-26T06:06:42;100604.14;;;-0.30;79.56
76598;BME280;65486;53.144;18.134;2023-02-26T06:09:09;100608.11;;;-0.30;79.51
76598;BME280;65486;53.144;18.134;2023-02-26T06:11:36;100605.59;;;-0.30;79.59
76598;BME280;65486;53.144;18.134;2023-02-26T06:14:09;100608.15;;;-0.32;79.60
76598;BME280;65486;53.144;18.134;2023-02-26T06:16:39;100618.71;;;-0.29;79.52
76598;BME280;65486;53.144;18.134;2023-02-26T06:19:07;100623.52;;;-0.27;79.67
76598;BME280;65486;53.144;18.134;2023-02-26T06:22:10;100631.67;;;-0.23;79.43
76598;BME280;65486;53.144;18.134;2023-02-26T06:25:17;100627.84;;;-0.27;79.24
76598;BME280;65486;53.144;18.134;2023-02-26T06:27:45;100643.55;;;-0.20;79.35
76598;BME280;65486;53.144;18.134;2023-02-26T06:30:11;100647.64;;;-0.17;79.19
76598;BME280;65486;53.144;18.134;2023-02-26T06:32:38;100655.13;;;-0.15;79.47
76598;BME280;65486;53.144;18.134;2023-02-26T06:35:05;100652.83;;;-0.13;79.26
76598;BME280;65486;53.144;18.134;2023-02-26T06:37:34;100660.09;;;-0.12;79.29
76598;BME280;65486;53.144;18.134;2023-02-26T06:40:00;100666.43;;;-0.11;79.16
76598;BME280;65486;53.144;18.134;2023-02-26T06:42:35;100663.16;;;-0.08;79.33
76598;BME280;65486;53.144;18.134;2023-02-26T06:45:03;100665.42;;;-0.04;79.26
76598;BME280;65486;53.144;18.134;2023-02-26T06:47:50;100666.40;;;0.04;79.12
76598;BME280;65486;53.144;18.134;2023-02-26T06:50:28;100676.83;;;0.10;78.89
76598;BME280;65486;53.144;18.134;2023-02-26T06:53:21;100681.15;;;0.17;79.28
76598;BME280;65486;53.144;18.134;2023-02-26T06:55:50;100684.52;;;0.21;79.18
76598;BME280;65486;53.144;18.134;2023-02-26T06:58:17;100684.02;;;0.22;79.12
76598;BME280;65486;53.144;18.134;2023-02-26T07:00:43;100688.73;;;0.24;79.18
76598;BME280;65486;53.144;18.134;2023-02-26T07:03:15;100688.92;;;0.25;79.15
76598;BME280;65486;53.144;18.134;2023-02-26T07:05:45;100697.93;;;0.27;79.19
76598;BME280;65486;53.144;18.134;2023-02-26T07:08:13;100700.19;;;0.27;79.50
76598;BME280;65486;53.144;18.134;2023-02-26T07:10:40;100705.08;;;0.26;79.78
76598;BME280;65486;53.144;18.134;2023-02-26T07:13:12;100709.92;;;0.30;79.83
76598;BME280;65486;53.144;18.134;2023-02-26T07:16:17;100712.84;;;0.33;79.84
76598;BME280;65486;53.144;18.134;2023-02-26T07:18:46;100715.89;;;0.40;79.96
76598;BME280;65486;53.144;18.134;2023-02-26T07:21:12;100718.43;;;0.61;79.78
76598;BME280;65486;53.144;18.134;2023-02-26T07:23:38;100722.27;;;1.34;78.71
76598;BME280;65486;53.144;18.134;2023-02-26T07:26:04;100724.92;;;1.74;78.07
76598;BME280;65486;53.144;18.134;2023-02-26T07:28:31;100729.32;;;1.95;77.28
76598;BME280;65486;53.144;18.134;2023-02-26T07:30:57;100732.95;;;1.90;76.83
76598;BME280;65486;53.144;18.134;2023-02-26T07:33:43;100740.64;;;1.76;77.16
76598;BME280;65486;53.144;18.134;2023-02-26T07:39:07;100756.27;;;1.73;76.83
76598;BME280;65486;53.144;18.134;2023-02-26T07:42:32;100739.34;;;1.45;77.51
76598;BME280;65486;53.144;18.134;2023-02-26T07:45:00;100768.64;;;1.62;78.03
76598;BME280;65486;53.144;18.134;2023-02-26T07:47:26;100766.15;;;1.73;77.94
76598;BME280;65486;53.144;18.134;2023-02-26T07:49:53;100778.34;;;1.59;78.29
76598;BME280;65486;53.144;18.134;2023-02-26T07:52:19;100781.42;;;1.46;78.45
76598;BME280;65486;53.144;18.134;2023-02-26T07:54:48;100787.39;;;1.38;78.58
76598;BME280;65486;53.144;18.134;2023-02-26T07:57:16;100794.92;;;1.27;78.46
76598;BME280;65486;53.144;18.134;2023-02-26T07:59:43;100792.35;;;1.15;78.67
76598;BME280;65486;53.144;18.134;2023-02-26T08:02:11;100797.89;;;1.13;78.77
76598;BME280;65486;53.144;18.134;2023-02-26T08:04:43;100806.22;;;1.14;79.18
76598;BME280;65486;53.144;18.134;2023-02-26T08:07:17;100800.36;;;1.21;78.85
76598;BME280;65486;53.144;18.134;2023-02-26T08:10:02;100802.05;;;1.50;78.40
76598;BME280;65486;53.144;18.134;2023-02-26T08:12:36;100796.02;;;2.76;76.00
76598;BME280;65486;53.144;18.134;2023-02-26T08:15:23;100798.35;;;3.84;73.88
76598;BME280;65486;53.144;18.134;2023-02-26T08:17:53;100795.12;;;4.44;71.71
76598;BME280;65486;53.144;18.134;2023-02-26T08:20:20;100803.89;;;5.02;70.18
76598;BME280;65486;53.144;18.134;2023-02-26T08:22:50;100808.14;;;5.91;68.50
76598;BME280;65486;53.144;18.134;2023-02-26T08:25:18;100809.89;;;7.53;63.52
76598;BME280;65486;53.144;18.134;2023-02-26T08:27:45;100807.60;;;9.12;60.35
76598;BME280;65486;53.144;18.134;2023-02-26T08:30:20;100802.67;;;10.65;56.88
76598;BME280;65486;53.144;18.134;2023-02-26T08:32:51;100804.58;;;12.01;52.49
76598;BME280;65486;53.144;18.134;2023-02-26T08:35:21;100807.57;;;12.23;52.86
76598;BME280;65486;53.144;18.134;2023-02-26T08:37:48;100813.57;;;12.30;53.52
76598;BME280;65486;53.144;18.134;2023-02-26T08:40:17;100818.00;;;13.08;49.71
76598;BME280;65486;53.144;18.134;2023-02-26T08:42:43;100818.90;;;13.69;45.01
76598;BME280;65486;53.144;18.134;2023-02-26T08:45:11;100822.02;;;14.00;46.47
76598;BME280;65486;53.144;18.134;2023-02-26T08:47:39;100825.40;;;13.20;47.76
76598;BME280;65486;53.144;18.134;2023-02-26T08:50:25;100834.85;;;12.04;47.57
76598;BME280;65486;53.144;18.134;2023-02-26T08:52:55;100845.33;;;11.09;48.26
76598;BME280;65486;53.144;18.134;2023-02-26T08:55:23;100850.17;;;10.69;49.80
76598;BME280;65486;53.144;18.134;2023-02-26T08:58:02;100855.02;;;10.51;48.48
76598;BME280;65486;53.144;18.134;2023-02-26T09:00:30;100860.90;;;9.71;51.13
76598;BME280;65486;53.144;18.134;2023-02-26T09:02:57;100867.44;;;9.23;52.16
76598;BME280;65486;53.144;18.134;2023-02-26T09:05:28;100871.96;;;9.60;51.00
76598;BME280;65486;53.144;18.134;2023-02-26T09:07:57;100873.64;;;11.19;48.33
76598;BME280;65486;53.144;18.134;2023-02-26T09:10:26;100870.54;;;12.38;44.37
76598;BME280;65486;53.144;18.134;2023-02-26T09:12:55;100871.45;;;13.36;44.00
76598;BME280;65486;53.144;18.134;2023-02-26T09:15:22;100882.02;;;13.95;40.42
76598;BME280;65486;53.144;18.134;2023-02-26T09:17:49;100884.36;;;13.70;38.95
76598;BME280;65486;53.144;18.134;2023-02-26T09:20:17;100888.88;;;12.57;41.31
76598;BME280;65486;53.144;18.134;2023-02-26T09:22:54;100899.98;;;11.30;41.91
76598;BME280;65486;53.144;18.134;2023-02-26T09:25:34;100911.30;;;10.78;43.46
76598;BME280;65486;53.144;18.134;2023-02-26T09:28:03;100914.94;;;10.50;43.57
76598;BME280;65486;53.144;18.134;2023-02-26T09:30:41;100919.20;;;11.13;43.12
76598;BME280;65486;53.144;18.134;2023-02-26T09:33:12;100916.36;;;11.59;41.78
76598;BME280;65486;53.144;18.134;2023-02-26T09:35:39;100920.02;;;12.32;41.64
76598;BME280;65486;53.144;18.134;2023-02-26T09:38:10;100926.13;;;12.83;40.42
76598;BME280;65486;53.144;18.134;2023-02-26T09:40:59;100933.30;;;13.09;38.50
76598;BME280;65486;53.144;18.134;2023-02-26T09:52:42;100943.16;;;12.73;40.09
76598;BME280;65486;53.144;18.134;2023-02-26T09:57:46;100952.90;;;13.60;37.53
76598;BME280;65486;53.144;18.134;2023-02-26T10:03:31;100969.80;;;14.04;36.18
76598;BME280;65486;53.144;18.134;2023-02-26T10:12:18;100986.13;;;12.72;36.87
76598;BME280;65486;53.144;18.134;2023-02-26T10:15:38;100994.70;;;12.46;37.18
76598;BME280;65486;53.144;18.134;2023-02-26T10:18:20;100995.56;;;12.21;39.21
76598;BME280;65486;53.144;18.134;2023-02-26T10:21:22;101012.23;;;11.75;37.63
76598;BME280;65486;53.144;18.134;2023-02-26T10:24:03;101017.40;;;10.16;37.93
76598;BME280;65486;53.144;18.134;2023-02-26T10:26:54;101024.04;;;9.12;39.93
76598;BME280;65486;53.144;18.134;2023-02-26T10:29:35;101022.64;;;8.66;41.34
76598;BME280;65486;53.144;18.134;2023-02-26T10:32:29;101026.74;;;8.43;41.87
76598;BME280;65486;53.144;18.134;2023-02-26T10:35:13;101029.23;;;8.09;42.43
76598;BME280;65486;53.144;18.134;2023-02-26T10:40:22;101037.38;;;7.47;43.72
76598;BME280;65486;53.144;18.134;2023-02-26T10:43:17;101038.39;;;7.31;44.11
76598;BME280;65486;53.144;18.134;2023-02-26T10:52:12;101052.30;;;6.48;46.75
76598;BME280;65486;53.144;18.134;2023-02-26T10:57:37;101054.30;;;6.10;47.10
76598;BME280;65486;53.144;18.134;2023-02-26T11:00:06;101058.77;;;6.00;47.48
76598;BME280;65486;53.144;18.134;2023-02-26T11:02:49;101060.93;;;5.92;47.11
76598;BME280;65486;53.144;18.134;2023-02-26T11:05:26;101062.60;;;5.86;47.38
76598;BME280;65486;53.144;18.134;2023-02-26T11:08:17;101075.02;;;5.62;47.89
76598;BME280;65486;53.144;18.134;2023-02-26T11:10:57;101081.35;;;5.20;47.18
76598;BME280;65486;53.144;18.134;2023-02-26T11:13:32;101081.13;;;4.96;46.93
76598;BME280;65486;53.144;18.134;2023-02-26T11:16:12;101081.52;;;4.71;47.45
76598;BME280;65486;53.144;18.134;2023-02-26T11:19:08;101083.23;;;4.60;48.35
76598;BME280;65486;53.144;18.134;2023-02-26T11:21:46;101087.77;;;4.59;48.70
76598;BME280;65486;53.144;18.134;2023-02-26T11:24:33;101087.58;;;4.59;48.55
76598;BME280;65486;53.144;18.134;2023-02-26T11:27:06;101096.52;;;4.54;48.39
76598;BME280;65486;53.144;18.134;2023-02-26T11:29:41;101098.95;;;4.63;48.63
76598;BME280;65486;53.144;18.134;2023-02-26T11:32:17;101098.79;;;4.74;48.60
76598;BME280;65486;53.144;18.134;2023-02-26T11:34:50;101107.17;;;4.85;48.15
76598;BME280;65486;53.144;18.134;2023-02-26T11:37:22;101108.13;;;4.75;47.85
76598;BME280;65486;53.144;18.134;2023-02-26T11:39:59;101108.27;;;4.57;48.65
76598;BME280;65486;53.144;18.134;2023-02-26T11:42:56;101117.84;;;4.40;49.18
76598;BME280;65486;53.144;18.134;2023-02-26T11:45:41;101123.73;;;4.31;48.63
76598;BME280;65486;53.144;18.134;2023-02-26T11:48:27;101131.38;;;4.23;48.65
76598;BME280;65486;53.144;18.134;2023-02-26T11:51:02;101134.52;;;4.21;48.86
76598;BME280;65486;53.144;18.134;2023-02-26T11:53:52;101144.12;;;4.20;48.53
76598;BME280;65486;53.144;18.134;2023-02-26T11:58:53;101150.55;;;4.27;47.30
76598;BME280;65486;53.144;18.134;2023-02-26T12:01:26;101145.02;;;4.33;47.14
76598;BME280;65486;53.144;18.134;2023-02-26T12:04:00;101145.98;;;4.45;47.47
76598;BME280;65486;53.144;18.134;2023-02-26T12:06:31;101148.14;;;4.66;46.76
76598;BME280;65486;53.144;18.134;2023-02-26T12:08:58;101152.71;;;4.79;46.01
76598;BME280;65486;53.144;18.134;2023-02-26T12:11:59;101160.69;;;4.76;44.21
76598;BME280;65486;53.144;18.134;2023-02-26T12:24:06;101163.77;;;4.48;43.49
76598;BME280;65486;53.144;18.134;2023-02-26T12:30:09;101168.61;;;4.36;45.28
76598;BME280;65486;53.144;18.134;2023-02-26T12:33:19;101168.66;;;4.38;45.96
76598;BME280;65486;53.144;18.134;2023-02-26T12:51:21;101172.93;;;4.27;44.63
76598;BME280;65486;53.144;18.134;2023-02-26T13:18:49;101219.27;;;4.14;50.98
76598;BME280;65486;53.144;18.134;2023-02-26T13:22:31;101223.62;;;4.22;51.00
76598;BME280;65486;53.144;18.134;2023-02-26T13:24:43;101231.59;;;4.32;51.60
76598;BME280;65486;53.144;18.134;2023-02-26T13:27:15;101232.02;;;4.30;51.83
76598;BME280;65486;53.144;18.134;2023-02-26T13:29:47;101240.27;;;4.21;51.84
76598;BME280;65486;53.144;18.134;2023-02-26T13:32:27;101224.83;;;4.08;52.59
76598;BME280;65486;53.144;18.134;2023-02-26T13:34:56;101245.35;;;4.11;52.75
76598;BME280;65486;53.144;18.134;2023-02-26T13:37:38;101250.42;;;4.02;52.41
76598;BME280;65486;53.144;18.134;2023-02-26T13:46:09;101256.63;;;3.69;52.61
76598;BME280;65486;53.144;18.134;2023-02-26T13:51:51;101258.60;;;3.46;52.43
76598;BME280;65486;53.144;18.134;2023-02-26T13:59:56;101272.08;;;3.18;52.79
76598;BME280;65486;53.144;18.134;2023-02-26T14:02:51;101278.85;;;3.11;52.94
76598;BME280;65486;53.144;18.134;2023-02-26T14:05:52;101280.55;;;3.07;53.20
76598;BME280;65486;53.144;18.134;2023-02-26T14:08:26;101287.22;;;3.01;53.29
76598;BME280;65486;53.144;18.134;2023-02-26T14:11:32;101280.09;;;2.94;52.23
76598;BME280;65486;53.144;18.134;2023-02-26T14:22:21;101285.84;;;2.86;51.18
76598;BME280;65486;53.144;18.134;2023-02-26T14:25:19;101287.19;;;2.86;50.04
76598;BME280;65486;53.144;18.134;2023-02-26T14:33:39;101292.55;;;2.88;50.65
76598;BME280;65486;53.144;18.134;2023-02-26T14:36:19;101298.29;;;2.91;50.73
76598;BME280;65486;53.144;18.134;2023-02-26T14:38:52;101299.01;;;2.92;50.70
76598;BME280;65486;53.144;18.134;2023-02-26T14:41:30;101300.54;;;2.93;50.85
76598;BME280;65486;53.144;18.134;2023-02-26T14:44:02;101307.59;;;2.94;50.93
76598;BME280;65486;53.144;18.134;2023-02-26T14:46:33;101311.84;;;2.91;50.93
76598;BME280;65486;53.144;18.134;2023-02-26T14:49:00;101309.20;;;2.91;51.18
76598;BME280;65486;53.144;18.134;2023-02-26T14:51:56;101315.44;;;2.90;51.32
76598;BME280;65486;53.144;18.134;2023-02-26T14:57:27;101323.87;;;2.86;51.53
76598;BME280;65486;53.144;18.134;2023-02-26T15:03:23;101317.77;;;2.76;51.37
76598;BME280;65486;53.144;18.134;2023-02-26T15:06:57;101326.58;;;2.75;51.58
76598;BME280;65486;53.144;18.134;2023-02-26T15:23:52;101354.33;;;2.60;51.26
76598;BME280;65486;53.144;18.134;2023-02-26T15:26:34;101357.81;;;2.49;49.62
76598;BME280;65486;53.144;18.134;2023-02-26T15:29:10;101357.34;;;2.40;49.57
76598;BME280;65486;53.144;18.134;2023-02-26T15:38:07;101375.56;;;2.25;50.22
76598;BME280;65486;53.144;18.134;2023-02-26T15:40:35;101370.84;;;2.16;50.33
76598;BME280;65486;53.144;18.134;2023-02-26T15:43:16;101385.98;;;2.19;50.48
76598;BME280;65486;53.144;18.134;2023-02-26T15:45:55;101390.26;;;2.16;50.42
76598;BME280;65486;53.144;18.134;2023-02-26T15:48:55;101397.22;;;2.11;50.47
76598;BME280;65486;53.144;18.134;2023-02-26T15:51:34;101392.52;;;2.06;49.44
76598;BME280;65486;53.144;18.134;2023-02-26T15:54:02;101398.95;;;1.99;49.66
76598;BME280;65486;53.144;18.134;2023-02-26T15:56:38;101384.75;;;1.82;49.57
76598;BME280;65486;53.144;18.134;2023-02-26T15:59:12;101411.27;;;1.89;49.49
76598;BME280;65486;53.144;18.134;2023-02-26T16:01:47;101412.16;;;1.82;49.62
76598;BME280;65486;53.144;18.134;2023-02-26T16:04:18;101413.81;;;1.78;50.02
76598;BME280;65486;53.144;18.134;2023-02-26T16:06:55;101415.87;;;1.74;49.91
76598;BME280;65486;53.144;18.134;2023-02-26T16:09:45;101424.84;;;1.69;50.13
76598;BME280;65486;53.144;18.134;2023-02-26T16:12:40;101425.70;;;1.62;50.30
76598;BME280;65486;53.144;18.134;2023-02-26T16:15:37;101430.54;;;1.55;49.89
76598;BME280;65486;53.144;18.134;2023-02-26T16:18:13;101435.25;;;1.50;50.43
76598;BME280;65486;53.144;18.134;2023-02-26T16:20:47;101442.17;;;1.45;50.60
76598;BME280;65486;53.144;18.134;2023-02-26T16:23:50;101439.70;;;1.41;50.52
76598;BME280;65486;53.144;18.134;2023-02-26T16:26:37;101444.46;;;1.39;50.84
76598;BME280;65486;53.144;18.134;2023-02-26T16:29:30;101445.04;;;1.36;50.92
76598;BME280;65486;53.144;18.134;2023-02-26T16:32:24;101451.31;;;1.33;51.33
76598;BME280;65486;53.144;18.134;2023-02-26T16:35:15;101455.98;;;1.32;51.54
76598;BME280;65486;53.144;18.134;2023-02-26T16:37:45;101459.77;;;1.30;51.56
76598;BME280;65486;53.144;18.134;2023-02-26T16:40:34;101467.09;;;1.28;51.94
76598;BME280;65486;53.144;18.134;2023-02-26T16:43:03;101470.52;;;1.26;51.70
76598;BME280;65486;53.144;18.134;2023-02-26T16:45:42;101465.25;;;1.26;51.93
76598;BME280;65486;53.144;18.134;2023-02-26T16:48:25;101471.51;;;1.25;51.79
76598;BME280;65486;53.144;18.134;2023-02-26T16:51:10;101467.29;;;1.24;51.94
76598;BME280;65486;53.144;18.134;2023-02-26T16:57:36;101475.85;;;1.21;51.88
76598;BME280;65486;53.144;18.134;2023-02-26T17:00:26;101477.10;;;1.21;52.70
76598;BME280;65486;53.144;18.134;2023-02-26T17:03:14;101481.92;;;1.22;52.48
76598;BME280;65486;53.144;18.134;2023-02-26T17:06:29;101473.85;;;1.18;52.65
76598;BME280;65486;53.144;18.134;2023-02-26T17:09:52;101485.81;;;1.25;52.89